createdAt,value
2018-03-24T00:00:28.852Z,29.12
2018-03-24T00:02:55.118Z,27.55
2018-03-24T00:05:21.158Z,27.35
2018-03-24T00:07:48.151Z,29.30
2018-03-24T00:10:14.221Z,28.10
2018-03-24T00:12:40.262Z,27.00
2018-03-24T00:15:07.704Z,28.12
2018-03-24T00:17:33.776Z,28.52
2018-03-24T00:19:59.785Z,34.35
2018-03-24T00:22:26.632Z,25.45
2018-03-24T00:24:52.647Z,29.05
2018-03-24T00:27:19.578Z,27.50
2018-03-24T00:29:46.366Z,25.00
2018-03-24T00:32:12.366Z,27.67
2018-03-24T00:34:38.654Z,25.58
2018-03-24T00:37:04.640Z,25.17
2018-03-24T00:39:30.807Z,28.67
2018-03-24T00:41:56.808Z,29.45
2018-03-24T00:44:22.768Z,28.23
2018-03-24T00:46:48.768Z,28.02
2018-03-24T00:49:14.779Z,28.62
2018-03-24T00:51:40.803Z,25.60
2018-03-24T00:54:06.781Z,27.95
2018-03-24T00:56:32.791Z,28.55
2018-03-24T00:58:59.549Z,27.30
2018-03-24T01:01:25.551Z,27.75
2018-03-24T01:03:51.567Z,27.75
2018-03-24T01:06:17.552Z,27.10
2018-03-24T01:08:43.570Z,29.15
2018-03-24T01:11:09.531Z,26.65
2018-03-24T01:13:35.650Z,30.60
2018-03-24T01:16:01.740Z,29.92
2018-03-24T01:18:27.702Z,29.20
2018-03-24T01:20:53.665Z,32.28
2018-03-24T01:23:19.683Z,35.10
2018-03-24T01:25:45.653Z,32.50
2018-03-24T01:28:11.760Z,32.15
2018-03-24T01:30:37.756Z,31.83
2018-03-24T01:33:03.744Z,31.98
2018-03-24T01:35:29.712Z,31.42
2018-03-24T01:37:55.686Z,30.05
2018-03-24T01:40:21.641Z,31.23
2018-03-24T01:42:47.729Z,32.28
2018-03-24T01:45:13.666Z,31.15
2018-03-24T01:47:40.400Z,35.93
2018-03-24T01:50:06.324Z,31.42
2018-03-24T01:52:33.064Z,32.40
2018-03-24T01:54:59.018Z,33.65
2018-03-24T01:57:24.969Z,33.58
2018-03-24T01:59:50.976Z,34.28
2018-03-24T02:02:16.938Z,36.55
2018-03-24T02:04:42.923Z,33.88
2018-03-24T02:07:08.857Z,32.58
2018-03-24T02:09:34.834Z,32.13
2018-03-24T02:12:00.800Z,36.17
2018-03-24T02:14:26.888Z,37.30
2018-03-24T02:16:52.854Z,35.90
2018-03-24T02:19:18.792Z,36.80
2018-03-24T02:21:44.781Z,32.70
2018-03-24T02:24:10.729Z,32.42
2018-03-24T02:26:36.720Z,36.25
2018-03-24T02:29:02.664Z,35.08
2018-03-24T02:31:28.758Z,35.58
2018-03-24T02:33:54.698Z,35.92
2018-03-24T02:36:20.677Z,38.00
2018-03-24T02:38:46.638Z,32.97
2018-03-24T02:41:12.642Z,41.47
2018-03-24T02:43:38.656Z,34.88
2018-03-24T02:46:04.822Z,32.67
2018-03-24T02:48:30.686Z,37.30
2018-03-24T02:50:57.376Z,38.87
2018-03-24T02:53:23.341Z,34.33
2018-03-24T02:55:49.297Z,36.28
2018-03-24T02:58:15.272Z,38.50
2018-03-24T03:00:41.230Z,33.70
2018-03-24T03:03:07.184Z,33.83
2018-03-24T03:05:33.291Z,34.22
2018-03-24T03:07:59.229Z,34.40
2018-03-24T03:10:25.200Z,32.20
2018-03-24T03:12:51.906Z,32.17
2018-03-24T03:15:18.092Z,33.70
2018-03-24T03:17:44.051Z,36.85
2018-03-24T03:20:09.992Z,32.78
2018-03-24T03:22:36.132Z,29.50
2018-03-24T03:25:02.088Z,32.38
2018-03-24T03:27:28.077Z,37.63
2018-03-24T03:29:54.025Z,36.40
2018-03-24T03:32:20.006Z,33.95
2018-03-24T03:34:45.945Z,37.80
2018-03-24T03:37:12.845Z,31.33
2018-03-24T03:39:38.854Z,33.83
2018-03-24T03:42:05.532Z,33.83
2018-03-24T03:44:31.477Z,34.88
2018-03-24T03:46:58.204Z,34.28
2018-03-24T03:49:24.144Z,33.83
2018-03-24T03:51:50.977Z,36.30
2018-03-24T03:54:17.664Z,31.40
2018-03-24T03:56:43.640Z,35.05
2018-03-24T03:59:10.343Z,34.55
2018-03-24T04:01:36.288Z,38.78
2018-03-24T04:04:02.261Z,37.50
2018-03-24T04:06:28.215Z,36.85
2018-03-24T04:08:54.211Z,36.38
2018-03-24T04:11:20.157Z,35.05
2018-03-24T04:13:46.113Z,37.97
2018-03-24T04:16:12.840Z,33.10
2018-03-24T04:18:38.796Z,37.47
2018-03-24T04:21:04.792Z,36.05
2018-03-24T04:23:31.477Z,34.40
2018-03-24T04:25:57.548Z,39.38
2018-03-24T04:28:23.504Z,37.67
2018-03-24T04:30:49.468Z,34.03
2018-03-24T04:33:15.429Z,37.17
2018-03-24T04:35:42.143Z,39.53
2018-03-24T04:38:08.085Z,39.53
2018-03-24T04:40:34.184Z,37.08
2018-03-24T04:43:00.132Z,42.65
2018-03-24T04:45:26.845Z,41.37
2018-03-24T04:47:52.803Z,42.78
2018-03-24T04:50:19.504Z,41.65
2018-03-24T04:52:45.496Z,39.65
2018-03-24T04:55:11.565Z,40.97
2018-03-24T04:57:38.279Z,44.97
2018-03-24T05:00:04.249Z,36.00
2018-03-24T05:02:30.931Z,41.25
2018-03-24T05:04:56.859Z,42.40
2018-03-24T05:07:22.825Z,41.53
2018-03-24T05:09:49.507Z,44.35
2018-03-24T05:12:15.585Z,41.20
2018-03-24T05:14:42.404Z,47.90
2018-03-24T05:17:08.372Z,40.58
2018-03-24T05:19:34.303Z,50.50
2018-03-24T05:22:00.264Z,41.97
2018-03-24T05:24:26.200Z,44.33
2018-03-24T05:26:53.048Z,43.45
2018-03-24T05:29:18.989Z,47.25
2018-03-24T05:31:44.934Z,40.25
2018-03-24T05:34:10.947Z,46.10
2018-03-24T05:36:36.914Z,40.70
2018-03-24T05:39:02.936Z,41.58
2018-03-24T05:41:28.849Z,44.15
2018-03-24T05:43:54.837Z,49.90
2018-03-24T05:46:20.759Z,49.38
2018-03-24T05:48:46.738Z,46.03
2018-03-24T05:51:12.712Z,49.05
2018-03-24T05:53:38.658Z,43.63
2018-03-24T05:56:04.652Z,48.78
2018-03-24T05:58:30.597Z,45.45
2018-03-24T06:00:56.683Z,43.40
2018-03-24T06:03:22.615Z,51.53
2018-03-24T06:05:48.585Z,50.00
2018-03-24T06:08:14.516Z,48.70
2018-03-24T06:10:40.496Z,47.23
2018-03-24T06:13:06.435Z,45.35
2018-03-24T06:15:32.659Z,45.83
2018-03-24T06:17:58.624Z,45.90
2018-03-24T06:20:25.299Z,44.83
2018-03-24T06:22:51.268Z,46.42
2018-03-24T06:25:17.203Z,48.97
2018-03-24T06:27:43.916Z,49.00
2018-03-24T06:30:09.863Z,35.03
2018-03-24T06:32:36.689Z,35.60
2018-03-24T06:35:02.614Z,32.65
2018-03-24T06:37:28.564Z,30.80
2018-03-24T06:39:55.256Z,35.20
2018-03-24T06:42:21.220Z,37.78
2018-03-24T06:44:47.952Z,44.63
2018-03-24T06:47:13.899Z,41.53
2018-03-24T06:49:39.844Z,42.03
2018-03-24T06:52:05.877Z,40.78
2018-03-24T06:54:31.808Z,39.35
2018-03-24T06:56:57.738Z,45.23
2018-03-24T06:59:23.748Z,46.27
2018-03-24T07:01:49.693Z,46.67
2018-03-24T07:04:15.676Z,52.40
2018-03-24T07:06:41.622Z,50.50
2018-03-24T07:09:07.720Z,52.53
2018-03-24T07:11:34.387Z,49.10
2018-03-24T07:14:00.510Z,50.05
2018-03-24T07:16:26.469Z,45.83
2018-03-24T07:18:52.602Z,49.25
2018-03-24T07:21:18.589Z,45.80
2018-03-24T07:23:44.480Z,48.87
2018-03-24T07:26:10.469Z,51.90
2018-03-24T07:28:37.152Z,47.42
2018-03-24T07:31:03.119Z,48.30
2018-03-24T07:33:29.818Z,51.58
2018-03-24T07:35:55.837Z,44.60
2018-03-24T07:38:21.802Z,45.90
2018-03-24T07:40:48.536Z,55.40
2018-03-24T07:43:15.228Z,54.53
2018-03-24T07:45:41.181Z,53.47
2018-03-24T07:48:07.149Z,50.70
2018-03-24T07:50:33.084Z,55.85
2018-03-24T07:52:59.204Z,50.07
2018-03-24T07:55:25.150Z,49.90
2018-03-24T07:57:51.126Z,52.97
2018-03-24T08:00:17.813Z,48.78
2018-03-24T08:02:43.751Z,51.55
2018-03-24T08:05:09.724Z,44.23
2018-03-24T08:07:35.665Z,45.88
2018-03-24T08:10:01.766Z,54.30
2018-03-24T08:12:27.737Z,42.47
2018-03-24T08:14:53.984Z,42.28
2018-03-24T08:17:19.930Z,44.13
2018-03-24T08:19:45.920Z,44.72
2018-03-24T08:22:11.876Z,39.08
2018-03-24T08:24:37.876Z,36.38
2018-03-24T08:27:04.609Z,40.33
2018-03-24T08:29:30.732Z,40.97
2018-03-24T08:31:56.700Z,36.15
2018-03-24T08:34:22.674Z,43.03
2018-03-24T08:36:48.664Z,40.50
2018-03-24T08:39:14.620Z,41.92
2018-03-24T08:41:40.591Z,37.42
2018-03-24T08:44:06.539Z,35.72
2018-03-24T08:46:32.656Z,34.00
2018-03-24T08:48:58.606Z,36.20
2018-03-24T08:51:24.586Z,37.37
2018-03-24T08:53:50.593Z,38.90
2018-03-24T08:56:16.635Z,32.33
2018-03-24T08:58:43.309Z,33.00
2018-03-24T09:01:09.390Z,31.77
2018-03-24T09:03:35.333Z,30.50
2018-03-24T09:06:01.322Z,31.10
2018-03-24T09:08:27.281Z,32.88
2018-03-24T09:10:53.275Z,27.47
2018-03-24T09:13:19.232Z,22.80
2018-03-24T09:15:45.303Z,25.90
2018-03-24T09:18:11.423Z,23.73
2018-03-24T09:20:37.396Z,23.17
2018-03-24T09:23:03.374Z,18.57
2018-03-24T09:25:30.062Z,17.73
2018-03-24T09:27:56.049Z,19.55
2018-03-24T09:30:22.031Z,17.20
2018-03-24T09:32:48.132Z,16.73
2018-03-24T09:35:14.103Z,15.80
2018-03-24T09:37:40.054Z,15.18
2018-03-24T09:40:06.051Z,18.80
2018-03-24T09:42:32.724Z,16.00
2018-03-24T09:44:58.709Z,13.55
2018-03-24T09:47:25.433Z,14.13
2018-03-24T09:49:51.526Z,15.93
2018-03-24T09:52:17.480Z,14.05
2018-03-24T09:54:44.182Z,12.77
2018-03-24T09:57:10.124Z,12.48
2018-03-24T09:59:36.086Z,9.23
2018-03-24T10:02:02.053Z,9.50
2018-03-24T10:04:28.010Z,12.95
2018-03-24T10:06:54.856Z,10.60
2018-03-24T10:09:21.575Z,10.63
2018-03-24T10:11:47.523Z,8.90
2018-03-24T10:14:14.364Z,10.83
2018-03-24T10:16:41.061Z,10.65
2018-03-24T10:19:07.010Z,13.07
2018-03-24T10:21:32.965Z,14.13
2018-03-24T10:23:59.082Z,14.67
2018-03-24T10:26:25.071Z,14.25
2018-03-24T10:28:51.065Z,13.70
2018-03-24T10:31:17.012Z,14.95
2018-03-24T10:33:42.980Z,14.57
2018-03-24T10:36:08.968Z,13.75
2018-03-24T10:38:34.916Z,10.18
2018-03-24T10:41:01.026Z,11.77
2018-03-24T10:43:27.706Z,12.75
2018-03-24T10:45:53.681Z,12.80
2018-03-24T10:48:19.625Z,15.10
2018-03-24T10:50:46.321Z,12.57
2018-03-24T10:53:12.298Z,11.27
2018-03-24T10:55:38.388Z,13.40
2018-03-24T10:58:04.361Z,13.50
2018-03-24T11:00:30.320Z,13.48
2018-03-24T11:02:56.297Z,11.93
2018-03-24T11:05:22.253Z,12.48
2018-03-24T11:07:48.252Z,13.40
2018-03-24T11:10:14.177Z,10.32
2018-03-24T11:12:40.253Z,10.93
2018-03-24T11:15:06.330Z,12.30
2018-03-24T11:17:32.309Z,10.82
2018-03-24T11:19:59.015Z,11.40
2018-03-24T11:22:24.965Z,10.88
2018-03-24T11:24:51.701Z,11.20
2018-03-24T11:27:18.412Z,11.77
2018-03-24T11:29:44.508Z,11.38
2018-03-24T11:32:10.449Z,15.90
2018-03-24T11:34:37.327Z,9.13
2018-03-24T11:37:04.017Z,11.52
2018-03-24T11:39:29.967Z,16.77
2018-03-24T11:41:56.066Z,9.10
2018-03-24T11:44:22.061Z,10.25
2018-03-24T11:46:48.026Z,10.05
2018-03-24T11:49:13.984Z,10.73
2018-03-24T11:51:40.696Z,9.70
2018-03-24T11:54:06.705Z,10.65
2018-03-24T11:56:32.733Z,9.98
2018-03-24T11:58:58.720Z,10.60
2018-03-24T12:01:32.724Z,9.40
2018-03-24T12:04:06.224Z,10.07
2018-03-24T12:06:39.968Z,9.65
2018-03-24T12:09:13.828Z,11.45
2018-03-24T12:11:47.377Z,8.55
2018-03-24T12:14:24.951Z,9.60
2018-03-24T12:16:50.952Z,9.43
2018-03-24T12:19:16.939Z,10.05
2018-03-24T12:21:42.926Z,10.10
2018-03-24T12:24:08.918Z,9.25
2018-03-24T12:26:35.036Z,9.55
2018-03-24T12:29:00.998Z,10.45
2018-03-24T12:31:27.025Z,9.83
2018-03-24T12:33:52.976Z,10.77
2018-03-24T12:36:19.834Z,11.20
2018-03-24T12:38:48.169Z,11.50
2018-03-24T12:41:16.219Z,10.18
2018-03-24T12:43:42.721Z,9.80
2018-03-24T12:46:09.055Z,10.40
2018-03-24T12:48:36.020Z,11.55
2018-03-24T12:51:03.702Z,10.02
2018-03-24T14:01:32.882Z,10.15
2018-03-24T14:03:58.826Z,9.45
2018-03-24T14:06:25.536Z,11.50
2018-03-24T14:08:51.501Z,10.40
2018-03-24T14:11:17.517Z,12.27
2018-03-24T14:13:43.508Z,10.38
2018-03-24T14:16:09.532Z,9.30
2018-03-24T14:18:35.503Z,10.07
2018-03-24T14:21:01.450Z,11.77
2018-03-24T14:23:27.458Z,11.13
2018-03-24T14:25:53.410Z,9.07
2018-03-24T14:28:19.504Z,9.90
2018-03-24T14:30:45.448Z,8.93
2018-03-24T14:33:11.424Z,9.93
2018-03-24T14:35:38.181Z,11.60
2018-03-24T14:38:04.164Z,10.10
2018-03-24T14:40:31.232Z,9.75
2018-03-24T14:42:58.072Z,10.23
2018-03-24T14:45:24.762Z,9.73
2018-03-24T14:47:50.764Z,10.00
2018-03-24T14:50:16.714Z,10.70
2018-03-24T14:52:42.681Z,10.60
2018-03-24T14:55:08.737Z,12.20
2018-03-24T14:57:34.847Z,12.70
2018-03-24T15:00:00.891Z,11.95
2018-03-24T15:02:26.788Z,12.33
2018-03-24T15:04:53.893Z,11.87
2018-03-24T15:07:19.871Z,10.93
2018-03-24T15:09:45.872Z,11.03
2018-03-24T15:12:12.960Z,11.48
2018-03-24T15:14:39.212Z,10.38
2018-03-24T15:17:05.181Z,12.00
2018-03-24T15:19:31.219Z,10.90
2018-03-24T15:21:58.304Z,10.32
2018-03-24T15:24:24.260Z,12.70
2018-03-24T15:26:50.976Z,12.23
2018-03-24T15:29:16.947Z,12.05
2018-03-24T15:31:42.880Z,12.20
2018-03-24T15:34:08.886Z,11.87
2018-03-24T15:36:34.880Z,11.30
2018-03-24T15:39:01.592Z,12.75
2018-03-24T15:41:27.574Z,13.18
2018-03-24T15:43:53.537Z,11.38
2018-03-24T15:46:19.621Z,13.00
2018-03-24T15:48:45.568Z,12.40
2018-03-24T15:51:11.577Z,12.13
2018-03-24T15:53:37.512Z,17.12
2018-03-24T15:56:03.531Z,13.90
2018-03-24T15:58:29.512Z,16.75
2018-03-24T16:00:55.502Z,16.17
2018-03-24T16:03:21.453Z,15.30
2018-03-24T16:05:48.313Z,12.73
2018-03-24T16:08:14.265Z,13.07
2018-03-24T16:10:40.213Z,14.67
2018-03-24T16:13:06.214Z,13.23
2018-03-24T16:15:32.352Z,15.35
2018-03-24T16:17:58.450Z,14.93
2018-03-24T16:20:24.434Z,17.12
2018-03-24T16:22:50.465Z,13.25
2018-03-24T16:25:16.480Z,15.15
2018-03-24T16:27:43.171Z,14.48
2018-03-24T16:30:09.171Z,13.65
2018-03-24T16:32:35.296Z,12.60
2018-03-24T16:35:01.284Z,14.20
2018-03-24T16:37:27.986Z,17.58
2018-03-24T16:39:53.936Z,16.08
2018-03-24T16:42:20.029Z,13.87
2018-03-24T16:44:45.977Z,16.98
2018-03-24T16:47:11.933Z,13.17
2018-03-24T16:49:37.960Z,13.17
2018-03-24T16:52:03.949Z,12.80
2018-03-24T16:54:29.910Z,13.30
2018-03-24T16:56:56.022Z,13.93
2018-03-24T16:59:21.981Z,14.15
2018-03-24T17:01:48.006Z,15.47
2018-03-24T17:04:13.980Z,14.15
2018-03-24T17:06:40.686Z,13.60
2018-03-24T17:09:06.692Z,12.93
2018-03-24T17:11:32.652Z,16.70
2018-03-24T17:13:59.653Z,15.93
2018-03-24T17:16:25.609Z,13.20
2018-03-24T17:18:51.549Z,17.47
2018-03-24T17:21:17.520Z,13.50
2018-03-24T17:23:43.468Z,14.27
2018-03-24T17:26:09.447Z,13.30
2018-03-24T17:28:35.420Z,17.35
2018-03-24T17:31:01.627Z,15.00
2018-03-24T17:33:27.587Z,13.07
2018-03-24T17:35:54.320Z,13.60
2018-03-24T17:38:20.260Z,13.65
2018-03-24T17:40:46.240Z,18.30
2018-03-24T17:43:12.195Z,15.50
2018-03-24T17:45:38.180Z,18.73
2018-03-24T17:48:04.360Z,13.57
2018-03-24T17:50:30.300Z,17.25
2018-03-24T17:52:56.298Z,14.80
2018-03-24T17:55:22.250Z,13.93
2018-03-24T17:57:48.208Z,14.77
2018-03-24T18:00:14.149Z,15.47
2018-03-24T18:02:41.021Z,19.10
2018-03-24T18:05:06.972Z,17.58
2018-03-24T18:07:32.948Z,15.03
2018-03-24T18:09:59.659Z,18.67
2018-03-24T18:12:25.639Z,15.55
2018-03-24T18:14:51.732Z,18.12
2018-03-24T18:17:18.464Z,18.10
2018-03-24T18:19:45.307Z,17.35
2018-03-24T18:22:12.018Z,16.52
2018-03-24T18:24:38.043Z,18.50
2018-03-24T18:27:03.995Z,17.27
2018-03-24T18:29:30.742Z,14.73
2018-03-24T18:31:56.696Z,17.62
2018-03-24T18:34:22.813Z,16.77
2018-03-24T18:36:48.776Z,18.83
2018-03-24T18:39:14.898Z,17.87
2018-03-24T18:41:40.856Z,17.60
2018-03-24T18:44:06.831Z,19.50
2018-03-24T18:46:32.813Z,16.87
2018-03-24T18:48:58.943Z,19.77
2018-03-24T18:51:24.891Z,18.55
2018-03-24T18:53:50.870Z,21.90
2018-03-24T18:56:17.593Z,18.73
2018-03-24T18:58:44.335Z,22.25
2018-03-24T19:01:11.097Z,23.12
2018-03-24T19:03:37.078Z,22.85
2018-03-24T19:06:03.030Z,20.65
2018-03-24T19:08:29.933Z,19.93
2018-03-24T19:10:55.927Z,18.77
2018-03-24T19:13:22.045Z,20.27
2018-03-24T19:15:48.157Z,20.58
2018-03-24T19:18:14.149Z,22.80
2018-03-24T19:20:40.149Z,24.65
2018-03-24T19:23:06.188Z,22.60
2018-03-24T19:25:32.131Z,18.02
2018-03-24T19:27:58.865Z,23.30
2018-03-24T19:30:25.732Z,18.60
2018-03-24T19:32:51.748Z,20.62
2018-03-24T19:35:18.448Z,21.10
2018-03-24T19:37:44.484Z,23.33
2018-03-24T19:40:10.431Z,27.17
2018-03-24T19:42:36.416Z,20.37
2018-03-24T19:45:02.415Z,21.23
2018-03-24T19:47:28.469Z,20.60
2018-03-24T19:49:54.489Z,21.25
2018-03-24T19:52:20.544Z,20.30
2018-03-24T19:54:47.253Z,21.27
2018-03-24T19:57:13.421Z,20.98
2018-03-24T19:59:39.415Z,20.20
2018-03-24T20:02:05.423Z,20.17
2018-03-24T20:04:31.504Z,23.55
2018-03-24T20:06:57.516Z,23.62
2018-03-24T20:09:23.517Z,18.60
2018-03-24T20:11:50.252Z,21.00
2018-03-24T20:14:16.421Z,22.83
2018-03-24T20:16:42.384Z,20.60
2018-03-24T20:19:08.425Z,20.77
2018-03-24T20:21:34.402Z,20.45
2018-03-24T20:24:00.420Z,26.40
2018-03-24T20:26:26.388Z,22.75
2018-03-24T20:28:52.389Z,22.87
2018-03-24T20:31:18.355Z,25.02
2018-03-24T20:33:44.510Z,23.48
2018-03-24T20:36:10.538Z,23.55
2018-03-24T20:38:36.993Z,26.20
2018-03-24T20:41:03.016Z,21.35
2018-03-24T20:43:28.996Z,22.75
2018-03-24T20:45:54.995Z,25.95
2018-03-24T20:48:21.746Z,22.23
2018-03-24T20:50:48.532Z,24.12
2018-03-24T20:53:14.577Z,22.87
2018-03-24T20:55:40.634Z,24.75
2018-03-24T20:58:07.319Z,25.62
2018-03-24T21:00:34.180Z,26.52
2018-03-24T21:03:09.210Z,22.50
2018-03-24T21:05:42.185Z,23.62
2018-03-24T21:08:10.847Z,21.65
2018-03-24T21:10:38.183Z,25.77
2018-03-24T21:13:04.701Z,21.90
2018-03-24T21:15:31.166Z,21.95
2018-03-24T21:17:57.169Z,24.45
2018-03-24T21:20:27.809Z,23.15
2018-03-24T21:22:53.780Z,22.27
2018-03-24T21:25:19.740Z,26.20
2018-03-24T21:27:46.429Z,22.90
2018-03-24T21:30:12.549Z,25.80
2018-03-24T21:32:38.517Z,28.40
2018-03-24T21:35:05.248Z,24.90
2018-03-24T21:37:31.172Z,22.83
2018-03-24T21:39:57.149Z,25.20
2018-03-24T21:42:23.109Z,27.25
2018-03-24T21:44:49.265Z,24.40
2018-03-24T21:47:15.962Z,28.62
2018-03-24T21:49:41.957Z,22.73
2018-03-24T21:52:07.909Z,27.27
2018-03-24T21:54:33.902Z,27.58
2018-03-24T21:56:59.907Z,26.62
2018-03-24T21:59:25.860Z,26.37
2018-03-24T22:01:51.966Z,24.80
2018-03-24T22:04:17.914Z,26.37
2018-03-24T22:06:43.916Z,23.80
2018-03-24T22:09:09.860Z,26.80
2018-03-24T22:11:35.844Z,21.40
2018-03-24T22:14:01.971Z,34.55
2018-03-24T22:16:28.156Z,26.37
2018-03-24T22:18:54.052Z,23.27
2018-03-24T22:21:23.632Z,25.10
2018-03-24T22:23:51.241Z,24.77
2018-03-24T22:26:19.164Z,27.48
2018-03-24T22:28:46.721Z,27.73
2018-03-24T22:31:15.243Z,24.87
2018-03-24T22:33:42.266Z,26.92
2018-03-24T22:36:08.270Z,27.33
2018-03-24T22:38:34.247Z,24.40
2018-03-24T22:41:00.200Z,24.48
2018-03-24T22:43:26.177Z,28.38
2018-03-24T22:45:52.164Z,27.02
2018-03-24T22:48:18.239Z,27.65
2018-03-24T22:50:44.205Z,29.50
2018-03-24T22:53:10.202Z,28.48
2018-03-24T22:55:36.909Z,27.02
2018-03-24T22:58:02.885Z,29.37
2018-03-24T23:00:28.828Z,25.92
2018-03-24T23:02:54.945Z,27.62
2018-03-24T23:05:20.916Z,24.75
2018-03-24T23:07:46.896Z,30.80
2018-03-24T23:10:12.848Z,28.05
2018-03-24T23:12:38.849Z,26.12
2018-03-24T23:15:04.958Z,28.05
2018-03-24T23:17:31.054Z,24.80
2018-03-24T23:19:57.048Z,25.35
2018-03-24T23:22:22.982Z,25.70
2018-03-24T23:24:48.967Z,24.13
2018-03-24T23:27:14.921Z,26.42
2018-03-24T23:29:41.637Z,25.10
2018-03-24T23:32:07.579Z,26.85
2018-03-24T23:34:33.689Z,24.43
2018-03-24T23:36:59.624Z,29.02
2018-03-24T23:39:25.714Z,26.40
2018-03-24T23:41:51.566Z,28.27
2018-03-24T23:44:17.559Z,28.70
2018-03-24T23:46:43.515Z,29.70
2018-03-24T23:49:09.640Z,25.95
2018-03-24T23:51:35.614Z,31.10
2018-03-24T23:54:01.554Z,33.88
2018-03-24T23:56:27.543Z,34.13
2018-03-24T23:58:53.503Z,70.95
